Impacts TAF Board
For situational awareness. Not to be used for flight planning purposes.
IDs:

KBFD - Bradford Rgnl, PA, US

Issued at 2120 UTC 21 May 2022
Updated at 2222 UTC 21 May 2022
Potential Impact None Slight Moderate High
Time2153Z 21/23Z 22/00Z 22/01Z 22/02Z 22/03Z 22/04Z 22/05Z 22/06Z 22/07Z 22/08Z 22/09Z 22/10Z 22/11Z>>
Type OBS PRVL PRVL PRVL PRVL PRVL PRVL PRVL PRVL PRVL PRVL PRVL PRVL PRVL
VIS 10 >6 >6 >6 >6 >6 >6 >6 >6 >6 6 6 6 6
CIG -- 40 40 40 40 40 40 40 40 40 -- -- -- --
Cover FEW BKN BKN BKN BKN BKN BKN BKN BKN BKN SCT SCT SCT SCT
FltCat VFR VFR VFR VFR VFR VFR VFR VFR VFR VFR VFR VFR VFR VFR
WX -- VCTS VCTS VCTS VCTS VCTS VCSH VCSH VCSH VCSH BR BR BR BR
WDir 180 190 190 190 190 190 VRB VRB VRB VRB VRB VRB VRB VRB
WSpd 11 6 6 6 6 6 3 3 3 3 2 2 2 2
WGst 16 -- -- -- -- -- -- -- -- -- -- -- -- --
WSHgt -- -- -- -- -- -- -- -- -- -- -- -- -- --
WSDir -- -- -- -- -- -- -- -- -- -- -- -- -- --
WSSpd -- -- -- -- -- -- -- -- -- -- -- -- -- --
Raw TAF
KBFD 212120Z 2121/2218 20009G16KT P6SM SCT050
  FM212300 19006KT P6SM VCTS BKN040CB
  FM220400 VRB03KT P6SM VCSH BKN040
  FM220800 VRB02KT 6SM BR SCT003
  FM221500 26008G15KT P6SM VCSH OVC035


Raw METAR
KBFD 212153Z AUTO 18011G16KT 10SM FEW055 29/15 A3002 RMK AO2 SLP143 T02940150
KBFD 212053Z AUTO 20006G19KT 10SM SCT070 30/14 A3004 RMK AO2 SLP149 T03000144 55006
KBFD 211953Z AUTO 19009G17KT 10SM FEW065 31/16 A3003 RMK AO2 SLP147 T03060156

METAR Board
Radar Display
Forecast Discussion
For situational awareness. Not to be used for flight planning purposes.